Time;durP1;ratioP1;P1;durP2;ratioP2;P2;SDS_P1;SDS_P2;PMS_P1;PMS_P2;Temp;Humidity;BMP_temperature;BMP_pressure;BME280_temperature;BME280_humidity;BME280_pressure;Samples;Min_cycle;Max_cycle;Signal;HPM_P1;HPM_P2
2021/01/23 00:00:56;;;;;;;12.20;7.90;;;;;;;;;;4941051;29;20059;-84
2021/01/23 00:03:22;;;;;;;12.05;7.72;;;;;;;;;;4930664;29;20139;-84
2021/01/23 00:05:48;;;;;;;10.35;7.20;;;;;;;;;;4925415;29;20580;-85
2021/01/23 00:08:14;;;;;;;8.57;6.32;;;;;;;;;;4925505;29;20108;-85
2021/01/23 00:10:41;;;;;;;10.18;7.10;;;;;;;;;;4925186;29;20052;-84
2021/01/23 00:13:07;;;;;;;10.23;6.97;;;;;;;;;;4925767;29;20056;-84
2021/01/23 00:15:33;;;;;;;10.18;6.45;;;;;;;;;;4925168;29;20048;-85
2021/01/23 00:17:59;;;;;;;8.18;6.85;;;;;;;;;;4924978;29;20052;-85
2021/01/23 00:20:25;;;;;;;10.02;7.38;;;;;;;;;;4925173;29;20120;-85
2021/01/23 00:22:50;;;;;;;11.05;6.53;;;;;;;;;;4924826;29;20113;-84
2021/01/23 00:25:16;;;;;;;9.00;6.22;;;;;;;;;;4924541;29;20052;-84
2021/01/23 00:27:43;;;;;;;7.95;6.18;;;;;;;;;;4924844;29;20090;-85
2021/01/23 00:30:10;;;;;;;9.88;6.75;;;;;;;;;;4926023;29;20063;-85
2021/01/23 00:32:37;;;;;;;8.95;6.32;;;;;;;;;;4924980;29;20101;-85
2021/01/23 00:35:04;;;;;;;10.85;6.50;;;;;;;;;;4924779;29;20048;-85
2021/01/23 00:37:30;;;;;;;9.02;6.70;;;;;;;;;;4925271;29;20489;-84
2021/01/23 00:39:56;;;;;;;9.25;6.20;;;;;;;;;;4924600;29;20426;-84
2021/01/23 00:42:21;;;;;;;9.63;7.13;;;;;;;;;;4924617;29;20089;-84
2021/01/23 00:44:48;;;;;;;10.23;7.63;;;;;;;;;;4924734;29;20512;-84
2021/01/23 00:47:14;;;;;;;12.20;6.93;;;;;;;;;;4905711;29;20057;-85
2021/01/23 00:49:40;;;;;;;12.35;7.22;;;;;;;;;;4904793;29;20549;-85
2021/01/23 00:52:06;;;;;;;12.00;8.18;;;;;;;;;;4904482;29;20052;-84
2021/01/23 00:54:32;;;;;;;13.95;8.00;;;;;;;;;;4904629;29;20056;-85
2021/01/23 00:56:58;;;;;;;11.13;7.88;;;;;;;;;;4904781;29;20068;-84
2021/01/23 00:59:24;;;;;;;10.52;7.22;;;;;;;;;;4904209;29;20052;-84
2021/01/23 01:01:51;;;;;;;10.95;6.78;;;;;;;;;;4904100;29;20154;-85
2021/01/23 01:04:17;;;;;;;12.07;8.18;;;;;;;;;;4904148;29;20048;-84
2021/01/23 01:06:43;;;;;;;11.25;6.90;;;;;;;;;;4903801;29;20052;-84
2021/01/23 01:09:10;;;;;;;9.25;6.38;;;;;;;;;;4903930;29;20403;-84
2021/01/23 01:11:36;;;;;;;11.75;7.03;;;;;;;;;;4903549;29;20052;-84
2021/01/23 01:14:02;;;;;;;10.02;7.43;;;;;;;;;;4903184;29;20064;-83
2021/01/23 01:16:28;;;;;;;12.57;7.88;;;;;;;;;;4928168;29;20048;-83
2021/01/23 01:18:55;;;;;;;10.70;7.20;;;;;;;;;;4941092;29;20497;-83
2021/01/23 01:21:21;;;;;;;7.95;5.68;;;;;;;;;;4940906;29;20457;-84
2021/01/23 01:23:47;;;;;;;7.22;4.80;;;;;;;;;;4940784;29;20052;-83
2021/01/23 01:26:13;;;;;;;6.50;4.03;;;;;;;;;;4940747;29;20048;-84
2021/01/23 01:28:39;;;;;;;5.70;3.42;;;;;;;;;;4940538;29;20479;-83
2021/01/23 01:31:05;;;;;;;5.18;3.40;;;;;;;;;;4941147;29;20094;-84
2021/01/23 01:33:31;;;;;;;5.57;3.80;;;;;;;;;;4941446;29;20052;-85
2021/01/23 01:35:57;;;;;;;5.57;3.40;;;;;;;;;;4941188;29;20123;-84
2021/01/23 01:38:23;;;;;;;5.38;3.00;;;;;;;;;;4941132;29;20044;-85
2021/01/23 01:40:50;;;;;;;4.75;3.00;;;;;;;;;;4940873;29;20083;-84
2021/01/23 01:43:16;;;;;;;3.90;2.40;;;;;;;;;;4941084;29;20051;-84
2021/01/23 01:45:42;;;;;;;4.32;2.65;;;;;;;;;;4941430;29;20116;-85
2021/01/23 01:48:11;;;;;;;5.32;2.90;;;;;;;;;;4941348;29;20054;-84
2021/01/23 01:50:37;;;;;;;4.65;2.85;;;;;;;;;;4941155;29;20155;-84
2021/01/23 01:53:04;;;;;;;4.32;2.10;;;;;;;;;;4940842;29;20051;-84
2021/01/23 01:55:32;;;;;;;3.45;1.70;;;;;;;;;;4941080;29;20051;-84
2021/01/23 01:57:59;;;;;;;2.58;1.33;;;;;;;;;;4940537;29;20056;-82
2021/01/23 02:00:24;;;;;;;2.25;1.38;;;;;;;;;;4940238;29;20052;-84
2021/01/23 02:03:10;;;;;;;3.00;1.55;;;;;;;;;;4940587;29;20115;-84
2021/01/23 02:05:40;;;;;;;4.70;1.63;;;;;;;;;;4940308;29;20067;-83
2021/01/23 02:08:12;;;;;;;3.60;1.88;;;;;;;;;;4940209;29;20312;-83
2021/01/23 02:10:44;;;;;;;3.28;1.80;;;;;;;;;;4939823;29;20051;-83
2021/01/23 02:13:18;;;;;;;3.72;1.92;;;;;;;;;;4934021;29;20408;-84
2021/01/23 02:15:47;;;;;;;4.63;2.35;;;;;;;;;;4940522;29;20051;-83
2021/01/23 02:18:15;;;;;;;4.15;2.28;;;;;;;;;;4939993;29;20055;-84
2021/01/23 02:21:32;;;;;;;3.30;2.08;;;;;;;;;;4939760;29;20495;-84
2021/01/23 02:24:02;;;;;;;2.70;1.77;;;;;;;;;;4904894;29;20092;-83
2021/01/23 02:26:36;;;;;;;2.72;1.60;;;;;;;;;;4920950;29;20071;-84
2021/01/23 02:29:08;;;;;;;2.72;1.65;;;;;;;;;;4920829;29;20055;-84
2021/01/23 02:31:37;;;;;;;3.03;1.65;;;;;;;;;;4921105;29;20111;-84
2021/01/23 02:34:04;;;;;;;3.10;1.73;;;;;;;;;;4921903;29;20583;-84
2021/01/23 02:36:31;;;;;;;2.80;1.73;;;;;;;;;;4920797;29;20052;-84
2021/01/23 02:38:57;;;;;;;3.05;2.10;;;;;;;;;;4920130;29;20055;-84
2021/01/23 02:41:23;;;;;;;2.42;1.60;;;;;;;;;;4920881;29;20056;-83
2021/01/23 02:43:49;;;;;;;2.10;1.58;;;;;;;;;;4920346;29;20099;-82
2021/01/23 02:46:16;;;;;;;2.42;1.45;;;;;;;;;;4920102;29;20505;-84
2021/01/23 02:48:44;;;;;;;2.53;1.50;;;;;;;;;;4920207;29;20048;-84
2021/01/23 02:51:27;;;;;;;2.10;1.40;;;;;;;;;;4920746;29;20409;-83
2021/01/23 02:54:00;;;;;;;1.77;1.27;;;;;;;;;;4925393;29;20044;-83
2021/01/23 02:56:27;;;;;;;2.53;1.80;;;;;;;;;;4939414;29;20062;-83
2021/01/23 02:58:53;;;;;;;2.53;1.52;;;;;;;;;;4938531;29;20108;-83
2021/01/23 03:01:21;;;;;;;2.13;1.25;;;;;;;;;;4938441;29;20051;-83
2021/01/23 03:03:49;;;;;;;1.90;1.15;;;;;;;;;;4938005;29;20051;-83
2021/01/23 03:06:15;;;;;;;2.97;1.50;;;;;;;;;;4938608;29;20059;-83
2021/01/23 03:08:43;;;;;;;2.42;1.30;;;;;;;;;;4938439;29;20052;-83
2021/01/23 03:11:09;;;;;;;1.75;1.10;;;;;;;;;;4938405;29;20062;-84
2021/01/23 03:13:35;;;;;;;2.08;1.52;;;;;;;;;;4938365;29;20079;-84
2021/01/23 03:16:01;;;;;;;2.10;1.40;;;;;;;;;;4938111;29;20583;-82
2021/01/23 03:18:27;;;;;;;1.80;1.20;;;;;;;;;;4938093;29;20055;-83
2021/01/23 03:20:54;;;;;;;2.05;1.25;;;;;;;;;;4938399;29;20058;-83
2021/01/23 03:23:20;;;;;;;2.20;1.40;;;;;;;;;;4937917;29;20080;-82
2021/01/23 03:25:46;;;;;;;1.98;1.35;;;;;;;;;;4938169;29;20059;-83
2021/01/23 03:28:12;;;;;;;1.85;1.27;;;;;;;;;;4938976;29;20134;-83
2021/01/23 03:30:38;;;;;;;1.73;1.17;;;;;;;;;;4938691;29;20480;-84
2021/01/23 03:33:04;;;;;;;1.50;1.05;;;;;;;;;;4938154;29;20052;-84
2021/01/23 03:35:30;;;;;;;1.00;0.80;;;;;;;;;;4939413;29;20056;-83
2021/01/23 03:37:57;;;;;;;1.27;0.82;;;;;;;;;;4938189;29;20159;-84
2021/01/23 03:40:23;;;;;;;1.55;1.00;;;;;;;;;;4938698;29;20059;-84
2021/01/23 03:42:49;;;;;;;1.15;0.70;;;;;;;;;;4938766;29;20075;-84
2021/01/23 03:45:16;;;;;;;1.65;1.10;;;;;;;;;;4938433;29;20048;-84
2021/01/23 03:47:42;;;;;;;1.45;1.00;;;;;;;;;;4938479;29;20047;-84
2021/01/23 03:50:09;;;;;;;1.48;1.10;;;;;;;;;;4937641;29;20050;-83
2021/01/23 03:52:35;;;;;;;2.40;1.10;;;;;;;;;;4938154;29;20052;-84
2021/01/23 03:55:03;;;;;;;3.33;1.38;;;;;;;;;;4924608;29;20490;-84
2021/01/23 03:57:29;;;;;;;5.00;1.52;;;;;;;;;;4919844;29;20048;-84
2021/01/23 03:59:55;;;;;;;3.47;1.52;;;;;;;;;;4919337;29;20577;-84
2021/01/23 04:02:21;;;;;;;2.30;1.10;;;;;;;;;;4919073;29;20044;-84
2021/01/23 04:04:47;;;;;;;4.55;1.98;;;;;;;;;;4919076;29;20491;-83
2021/01/23 04:07:13;;;;;;;3.63;1.40;;;;;;;;;;4919360;29;20059;-83
2021/01/23 04:09:39;;;;;;;1.75;1.08;;;;;;;;;;4919092;29;20504;-85
2021/01/23 04:12:07;;;;;;;2.33;1.30;;;;;;;;;;4919640;29;20401;-85
2021/01/23 04:14:33;;;;;;;3.70;1.33;;;;;;;;;;4918658;29;20055;-83
2021/01/23 04:16:59;;;;;;;3.17;1.00;;;;;;;;;;4918744;29;20052;-84
2021/01/23 04:19:25;;;;;;;1.63;1.00;;;;;;;;;;4919392;29;20556;-83
2021/01/23 04:21:51;;;;;;;2.08;1.23;;;;;;;;;;4919559;29;20056;-84
2021/01/23 04:24:17;;;;;;;4.65;1.00;;;;;;;;;;4923250;29;20104;-84
2021/01/23 04:26:43;;;;;;;1.15;0.70;;;;;;;;;;4937975;29;20051;-84
2021/01/23 04:29:09;;;;;;;1.77;1.00;;;;;;;;;;4938067;29;20135;-85
2021/01/23 04:31:36;;;;;;;1.52;0.80;;;;;;;;;;4937821;29;20485;-84
2021/01/23 04:34:02;;;;;;;1.38;0.98;;;;;;;;;;4937583;29;20107;-84
2021/01/23 04:36:28;;;;;;;2.42;0.93;;;;;;;;;;4937917;29;20164;-86
2021/01/23 04:38:54;;;;;;;1.48;1.10;;;;;;;;;;4937528;29;20055;-84
2021/01/23 04:41:21;;;;;;;1.15;0.90;;;;;;;;;;4938047;29;20052;-85
2021/01/23 04:43:47;;;;;;;3.35;1.20;;;;;;;;;;4937712;29;20060;-84
2021/01/23 04:46:17;;;;;;;1.55;0.98;;;;;;;;;;4938807;29;20052;-84
2021/01/23 04:48:43;;;;;;;1.77;0.93;;;;;;;;;;4938387;29;20052;-84
2021/01/23 04:51:09;;;;;;;1.42;0.90;;;;;;;;;;4937679;29;20178;-84
2021/01/23 04:53:35;;;;;;;1.58;1.08;;;;;;;;;;4940011;29;20067;-84
2021/01/23 04:56:03;;;;;;;1.75;1.48;;;;;;;;;;4941337;29;20082;-85
2021/01/23 04:58:29;;;;;;;2.05;1.17;;;;;;;;;;4941080;29;20063;-84
2021/01/23 05:00:55;;;;;;;1.98;1.02;;;;;;;;;;4940815;29;20052;-84
2021/01/23 05:03:22;;;;;;;1.52;1.00;;;;;;;;;;4935732;29;20559;-83
2021/01/23 05:06:04;;;;;;;2.08;1.00;;;;;;;;;;4941568;29;20052;-83
2021/01/23 05:08:35;;;;;;;1.67;1.10;;;;;;;;;;4940761;29;20440;-83
2021/01/23 05:11:01;;;;;;;1.00;0.85;;;;;;;;;;4941332;29;20508;-83
2021/01/23 05:13:27;;;;;;;2.00;1.10;;;;;;;;;;4940568;29;20062;-83
2021/01/23 05:15:53;;;;;;;2.83;1.33;;;;;;;;;;4941531;29;20095;-83
2021/01/23 05:18:19;;;;;;;1.17;0.85;;;;;;;;;;4941060;29;20130;-83
2021/01/23 05:20:47;;;;;;;1.35;0.95;;;;;;;;;;4940372;29;20423;-85
2021/01/23 05:23:14;;;;;;;1.70;1.00;;;;;;;;;;4940633;29;20051;-84
2021/01/23 05:25:42;;;;;;;2.88;1.02;;;;;;;;;;4940318;29;20416;-84
2021/01/23 05:28:09;;;;;;;1.75;1.20;;;;;;;;;;4939939;29;20055;-84
2021/01/23 05:30:43;;;;;;;1.80;1.17;;;;;;;;;;4940322;29;20106;-83
2021/01/23 05:33:10;;;;;;;2.33;1.33;;;;;;;;;;4935967;29;20048;-83
2021/01/23 05:35:37;;;;;;;2.33;1.42;;;;;;;;;;4920800;29;20079;-83
2021/01/23 05:38:25;;;;;;;1.42;1.02;;;;;;;;;;4920844;29;20048;-84
2021/01/23 05:40:55;;;;;;;3.08;1.48;;;;;;;;;;4921252;29;20409;-84
2021/01/23 05:43:31;;;;;;;2.35;1.60;;;;;;;;;;4920744;29;20063;-83
2021/01/23 05:45:58;;;;;;;1.98;1.30;;;;;;;;;;4920849;29;20056;-84
2021/01/23 05:48:24;;;;;;;1.45;1.13;;;;;;;;;;4920866;29;20062;-84
2021/01/23 05:50:50;;;;;;;2.28;1.50;;;;;;;;;;4920895;29;20587;-83
2021/01/23 05:53:17;;;;;;;2.30;1.40;;;;;;;;;;4921200;29;20605;-82
2021/01/23 05:55:43;;;;;;;2.10;1.38;;;;;;;;;;4939981;29;20048;-82
2021/01/23 05:58:09;;;;;;;2.00;1.45;;;;;;;;;;4939315;29;20048;-82
2021/01/23 06:00:36;;;;;;;1.70;1.25;;;;;;;;;;4939786;29;20103;-82
2021/01/23 06:03:02;;;;;;;2.40;1.50;;;;;;;;;;4939760;29;20059;-82
2021/01/23 06:05:28;;;;;;;1.88;1.15;;;;;;;;;;4939386;29;20063;-82
2021/01/23 06:07:54;;;;;;;1.95;1.35;;;;;;;;;;4939254;29;20063;-83
2021/01/23 06:10:41;;;;;;;2.40;1.30;;;;;;;;;;4939086;29;20102;-82
2021/01/23 06:13:34;;;;;;;1.58;1.38;;;;;;;;;;4939293;29;20056;-82
2021/01/23 06:16:01;;;;;;;4.35;2.30;;;;;;;;;;4939162;29;20055;-82
2021/01/23 06:18:28;;;;;;;2.97;1.80;;;;;;;;;;4939209;29;20432;-82
2021/01/23 06:20:55;;;;;;;2.63;1.63;;;;;;;;;;4939418;29;20390;-82
2021/01/23 06:23:21;;;;;;;2.55;1.60;;;;;;;;;;4939266;29;20792;-82
2021/01/23 06:25:59;;;;;;;3.90;1.55;;;;;;;;;;4939210;29;20055;-82
2021/01/23 06:28:49;;;;;;;3.63;1.45;;;;;;;;;;4939392;29;20054;-83
2021/01/23 06:31:33;;;;;;;2.47;1.50;;;;;;;;;;4939150;29;20573;-82
2021/01/23 06:34:00;;;;;;;1.77;1.20;;;;;;;;;;4939154;29;20047;-82
2021/01/23 06:36:28;;;;;;;6.32;3.40;;;;;;;;;;4939309;29;20051;-82
2021/01/23 06:39:06;;;;;;;2.90;1.90;;;;;;;;;;4939087;29;20051;-83
2021/01/23 06:41:33;;;;;;;3.90;1.50;;;;;;;;;;4938959;29;20056;-83
2021/01/23 06:44:09;;;;;;;2.08;1.40;;;;;;;;;;4939428;29;20221;-83
2021/01/23 06:46:37;;;;;;;;;;;;;;;;;;4939180;29;20051;-82
2021/01/23 06:49:04;;;;;;;2.15;1.63;;;;;;;;;;4938985;29;19930;-83
2021/01/23 06:51:30;;;;;;;2.70;1.60;;;;;;;;;;4938654;29;20043;-83
2021/01/23 06:54:09;;;;;;;2.92;1.75;;;;;;;;;;4938788;29;20047;-83
2021/01/23 06:56:35;;;;;;;2.10;1.45;;;;;;;;;;4938787;29;20056;-83
2021/01/23 06:59:03;;;;;;;3.05;1.70;;;;;;;;;;4938878;29;20060;-84
2021/01/23 07:01:29;;;;;;;2.45;1.63;;;;;;;;;;4939060;29;20062;-84
2021/01/23 07:03:56;;;;;;;2.45;1.52;;;;;;;;;;4937893;29;20551;-84
2021/01/23 07:06:29;;;;;;;2.53;1.65;;;;;;;;;;4938536;29;20048;-85
2021/01/23 07:08:55;;;;;;;2.90;1.80;;;;;;;;;;4938419;29;20133;-84
2021/01/23 07:11:21;;;;;;;3.55;2.53;;;;;;;;;;4938016;29;20510;-84
2021/01/23 07:13:58;;;;;;;3.13;2.08;;;;;;;;;;4938425;29;20489;-84
2021/01/23 07:16:25;;;;;;;2.83;1.83;;;;;;;;;;4937966;29;20064;-84
2021/01/23 07:18:53;;;;;;;2.83;1.75;;;;;;;;;;4938119;29;20557;-84
2021/01/23 07:21:21;;;;;;;3.35;2.20;;;;;;;;;;4937871;29;20051;-83
2021/01/23 07:23:47;;;;;;;3.67;2.05;;;;;;;;;;4938258;29;20051;-83
2021/01/23 07:26:14;;;;;;;2.70;1.95;;;;;;;;;;4939008;29;20599;-84
2021/01/23 07:28:44;;;;;;;3.80;2.42;;;;;;;;;;4938389;29;20419;-84
2021/01/23 07:31:21;;;;;;;3.20;2.17;;;;;;;;;;4938527;29;20051;-83
2021/01/23 07:33:47;;;;;;;3.10;1.98;;;;;;;;;;4937885;29;20052;-83
2021/01/23 07:36:28;;;;;;;4.10;2.25;;;;;;;;;;4938308;29;20493;-83
2021/01/23 07:38:54;;;;;;;4.35;2.50;;;;;;;;;;4937805;29;20183;-83
2021/01/23 07:41:21;;;;;;;3.75;2.30;;;;;;;;;;4937886;29;20051;-83
2021/01/23 07:43:47;;;;;;;3.78;2.35;;;;;;;;;;4937660;29;20481;-83
2021/01/23 07:46:13;;;;;;;4.28;2.70;;;;;;;;;;4938636;29;20051;-83
2021/01/23 07:48:40;;;;;;;4.80;2.92;;;;;;;;;;4938236;29;20684;-83
2021/01/23 07:51:06;;;;;;;5.00;3.10;;;;;;;;;;4940311;29;20059;-84
2021/01/23 07:53:33;;;;;;;6.00;3.78;;;;;;;;;;4940908;29;20056;-84
2021/01/23 07:56:00;;;;;;;4.00;2.97;;;;;;;;;;4940982;29;20060;-84
2021/01/23 07:58:26;;;;;;;4.78;2.92;;;;;;;;;;4928477;29;20437;-84
2021/01/23 08:00:52;;;;;;;5.50;2.90;;;;;;;;;;4920952;29;20052;-84
2021/01/23 08:03:18;;;;;;;5.90;3.45;;;;;;;;;;4936261;29;20055;-84
2021/01/23 08:05:46;;;;;;;5.28;3.08;;;;;;;;;;4937920;29;20063;-84
2021/01/23 08:08:12;;;;;;;6.15;3.30;;;;;;;;;;4939784;29;20079;-84
2021/01/23 08:10:39;;;;;;;7.03;3.88;;;;;;;;;;4938490;29;20058;-84
2021/01/23 08:13:07;;;;;;;9.20;4.90;;;;;;;;;;4938395;29;20052;-84
2021/01/23 08:15:35;;;;;;;10.35;5.15;;;;;;;;;;4938355;29;20059;-84
2021/01/23 08:18:02;;;;;;;9.23;4.47;;;;;;;;;;4938584;29;20063;-85
2021/01/23 08:20:33;;;;;;;8.00;4.13;;;;;;;;;;4930396;29;20051;-84
2021/01/23 08:23:03;;;;;;;6.43;4.00;;;;;;;;;;4935121;29;20044;-84
2021/01/23 08:25:31;;;;;;;6.35;3.70;;;;;;;;;;4924323;29;20052;-83
2021/01/23 08:27:58;;;;;;;6.40;3.72;;;;;;;;;;4920080;29;20436;-83
2021/01/23 08:30:26;;;;;;;5.78;3.58;;;;;;;;;;4921499;29;20048;-84
2021/01/23 08:32:52;;;;;;;8.13;3.95;;;;;;;;;;4922633;29;20524;-84
2021/01/23 08:35:18;;;;;;;8.07;3.95;;;;;;;;;;4922183;29;20056;-83
2021/01/23 08:37:44;;;;;;;6.57;4.57;;;;;;;;;;4921240;29;20048;-83
2021/01/23 08:40:11;;;;;;;7.35;5.00;;;;;;;;;;4922986;29;20048;-83
2021/01/23 08:42:37;;;;;;;9.20;6.05;;;;;;;;;;4933638;29;20059;-83
2021/01/23 08:45:05;;;;;;;8.32;6.03;;;;;;;;;;4941382;29;20063;-83
2021/01/23 08:47:31;;;;;;;8.25;5.43;;;;;;;;;;4941220;29;20048;-84
2021/01/23 08:49:57;;;;;;;7.72;5.28;;;;;;;;;;4942032;29;20054;-83
2021/01/23 08:52:24;;;;;;;10.88;6.57;;;;;;;;;;4941789;29;20052;-84
2021/01/23 08:54:50;;;;;;;6.93;4.72;;;;;;;;;;4941279;29;20508;-83
2021/01/23 08:57:16;;;;;;;8.70;5.93;;;;;;;;;;4928370;29;20056;-83
2021/01/23 08:59:42;;;;;;;6.20;4.60;;;;;;;;;;4921685;29;20135;-83
2021/01/23 09:02:10;;;;;;;6.93;4.07;;;;;;;;;;4919741;29;20052;-83
2021/01/23 09:04:37;;;;;;;6.28;4.22;;;;;;;;;;4918700;29;20060;-83
2021/01/23 09:07:03;;;;;;;9.45;5.65;;;;;;;;;;4922155;29;20060;-84
2021/01/23 09:09:29;;;;;;;7.35;4.20;;;;;;;;;;4921971;29;20408;-84
2021/01/23 09:11:55;;;;;;;6.75;4.10;;;;;;;;;;4921944;29;20059;-84
2021/01/23 09:14:21;;;;;;;6.97;4.60;;;;;;;;;;4923568;29;20048;-84
2021/01/23 09:16:47;;;;;;;5.72;4.28;;;;;;;;;;4922767;29;20055;-85
2021/01/23 09:19:14;;;;;;;9.40;6.13;;;;;;;;;;4927562;29;20058;-86
2021/01/23 09:21:40;;;;;;;11.18;6.25;;;;;;;;;;4920877;29;20055;-84
2021/01/23 09:24:08;;;;;;;8.00;4.82;;;;;;;;;;4926799;29;20135;-84
2021/01/23 09:26:33;;;;;;;10.38;6.53;;;;;;;;;;4939823;29;20048;-84
2021/01/23 09:28:59;;;;;;;7.95;5.10;;;;;;;;;;4930654;29;20044;-84
2021/01/23 09:31:25;;;;;;;7.05;4.43;;;;;;;;;;4922696;29;20087;-85
2021/01/23 09:33:51;;;;;;;6.30;4.32;;;;;;;;;;4914814;29;20052;-85
2021/01/23 09:36:18;;;;;;;9.10;5.55;;;;;;;;;;4920283;29;20052;-85
2021/01/23 09:38:45;;;;;;;9.55;5.20;;;;;;;;;;4924293;29;20106;-85
2021/01/23 09:41:11;;;;;;;5.90;3.67;;;;;;;;;;4933552;29;20111;-84
2021/01/23 09:43:38;;;;;;;5.93;4.07;;;;;;;;;;4923634;29;20480;-85
2021/01/23 09:46:04;;;;;;;5.35;3.95;;;;;;;;;;4921001;29;20087;-85
2021/01/23 09:48:30;;;;;;;7.20;4.30;;;;;;;;;;4919598;29;20052;-85
2021/01/23 09:50:56;;;;;;;6.38;4.22;;;;;;;;;;4919787;29;20052;-85
2021/01/23 09:53:23;;;;;;;7.35;4.80;;;;;;;;;;4929918;29;20055;-85
2021/01/23 09:55:49;;;;;;;7.05;4.75;;;;;;;;;;4919677;29;20056;-85
2021/01/23 09:58:15;;;;;;;7.10;5.07;;;;;;;;;;4922336;29;20056;-85
2021/01/23 10:00:41;;;;;;;6.47;4.68;;;;;;;;;;4923578;29;20075;-84
2021/01/23 10:03:07;;;;;;;7.25;4.75;;;;;;;;;;4930933;29;20056;-83
2021/01/23 10:05:33;;;;;;;7.38;4.95;;;;;;;;;;4919867;29;20545;-83
2021/01/23 10:07:59;;;;;;;7.15;4.32;;;;;;;;;;4927212;29;20080;-83
2021/01/23 10:10:28;;;;;;;7.10;4.80;;;;;;;;;;4924626;29;20051;-84
2021/01/23 10:12:54;;;;;;;7.45;5.47;;;;;;;;;;4924018;29;20056;-84
2021/01/23 10:15:21;;;;;;;5.70;4.60;;;;;;;;;;4927605;29;20112;-84
2021/01/23 10:17:48;;;;;;;6.18;4.22;;;;;;;;;;4930313;29;20055;-84
2021/01/23 10:20:14;;;;;;;6.68;4.50;;;;;;;;;;4928802;29;20054;-84
2021/01/23 10:22:40;;;;;;;7.38;4.80;;;;;;;;;;4929655;29;20040;-84
2021/01/23 10:25:07;;;;;;;6.07;3.92;;;;;;;;;;4914672;29;20060;-84
2021/01/23 10:27:34;;;;;;;10.02;5.38;;;;;;;;;;4942051;29;20111;-84
2021/01/23 10:30:00;;;;;;;7.47;4.15;;;;;;;;;;4933588;29;20481;-84
2021/01/23 10:32:27;;;;;;;7.25;5.30;;;;;;;;;;4921362;29;20402;-84
2021/01/23 10:34:53;;;;;;;11.70;6.90;;;;;;;;;;4921882;29;20051;-84
2021/01/23 10:37:19;;;;;;;8.40;5.30;;;;;;;;;;4931838;29;20052;-84
2021/01/23 10:39:45;;;;;;;10.07;5.47;;;;;;;;;;4926290;29;20080;-84
2021/01/23 10:42:11;;;;;;;7.93;5.03;;;;;;;;;;4925574;29;20060;-84
2021/01/23 10:44:39;;;;;;;6.47;4.93;;;;;;;;;;4927897;29;20107;-83
2021/01/23 10:47:06;;;;;;;6.43;4.78;;;;;;;;;;4911543;29;20144;-84
2021/01/23 10:49:32;;;;;;;7.35;4.80;;;;;;;;;;4919060;29;20115;-84
2021/01/23 10:51:58;;;;;;;7.57;5.25;;;;;;;;;;4919960;29;20079;-84
2021/01/23 10:54:24;;;;;;;8.70;6.13;;;;;;;;;;4923038;29;20416;-84
2021/01/23 10:56:50;;;;;;;7.18;5.18;;;;;;;;;;4931626;29;20054;-84
2021/01/23 10:59:16;;;;;;;8.68;6.00;;;;;;;;;;4934181;29;20048;-84
2021/01/23 11:01:43;;;;;;;9.63;7.10;;;;;;;;;;4919131;29;20052;-84
2021/01/23 11:04:09;;;;;;;7.13;5.68;;;;;;;;;;4934405;29;20548;-84
2021/01/23 11:06:35;;;;;;;6.75;4.45;;;;;;;;;;4930549;29;20412;-85
2021/01/23 11:09:01;;;;;;;8.60;5.30;;;;;;;;;;4919108;29;20516;-85
2021/01/23 11:11:27;;;;;;;9.52;5.85;;;;;;;;;;4919330;29;20058;-85
2021/01/23 11:13:53;;;;;;;10.20;6.70;;;;;;;;;;4919569;29;20056;-85
2021/01/23 11:16:19;;;;;;;7.53;5.45;;;;;;;;;;4919623;29;20075;-85
2021/01/23 11:18:46;;;;;;;8.35;5.15;;;;;;;;;;4919362;29;20056;-85
2021/01/23 11:21:13;;;;;;;6.72;5.38;;;;;;;;;;4919524;29;20561;-85
2021/01/23 11:23:39;;;;;;;6.53;4.78;;;;;;;;;;4934410;29;20515;-85
2021/01/23 11:26:05;;;;;;;7.15;5.32;;;;;;;;;;4930670;29;20048;-85
2021/01/23 11:28:31;;;;;;;9.63;4.93;;;;;;;;;;4937367;29;20134;-84
2021/01/23 11:30:57;;;;;;;8.13;5.40;;;;;;;;;;4938583;29;20086;-85
2021/01/23 11:33:23;;;;;;;9.70;6.22;;;;;;;;;;4938532;29;20135;-84
2021/01/23 11:35:50;;;;;;;8.35;5.50;;;;;;;;;;4938768;29;20483;-84
2021/01/23 11:38:16;;;;;;;8.10;5.57;;;;;;;;;;4930749;29;20058;-84
2021/01/23 11:40:43;;;;;;;10.93;7.32;;;;;;;;;;4919179;29;20077;-85
2021/01/23 11:43:09;;;;;;;9.20;6.05;;;;;;;;;;4920200;29;20052;-85
2021/01/23 11:45:35;;;;;;;9.82;6.32;;;;;;;;;;4919659;29;20465;-85
2021/01/23 11:48:01;;;;;;;8.35;5.68;;;;;;;;;;4920294;29;20075;-84
2021/01/23 11:50:27;;;;;;;7.72;5.10;;;;;;;;;;4918417;29;20051;-85
2021/01/23 11:52:54;;;;;;;7.90;5.40;;;;;;;;;;4918464;29;20063;-85
2021/01/23 11:55:20;;;;;;;8.80;6.15;;;;;;;;;;4918497;29;20477;-85
2021/01/23 11:57:46;;;;;;;6.60;4.50;;;;;;;;;;4918796;29;20525;-85
2021/01/23 12:00:13;;;;;;;7.85;5.30;;;;;;;;;;4918335;29;20054;-84
2021/01/23 12:02:39;;;;;;;9.25;5.70;;;;;;;;;;4921934;29;20050;-84
2021/01/23 12:05:06;;;;;;;8.18;5.63;;;;;;;;;;4938739;29;20131;-85
2021/01/23 12:07:33;;;;;;;7.22;5.10;;;;;;;;;;4934018;29;20044;-84
2021/01/23 12:09:59;;;;;;;9.55;5.65;;;;;;;;;;4941213;29;20075;-85
2021/01/23 12:12:25;;;;;;;10.07;6.70;;;;;;;;;;4941094;29;20052;-84
2021/01/23 12:14:51;;;;;;;8.43;5.68;;;;;;;;;;4922636;29;20433;-85
2021/01/23 12:17:18;;;;;;;7.45;5.65;;;;;;;;;;4922344;29;20068;-84
2021/01/23 12:19:44;;;;;;;8.82;5.22;;;;;;;;;;4922760;29;20055;-84
2021/01/23 12:22:10;;;;;;;9.18;6.15;;;;;;;;;;4922342;29;20145;-84
2021/01/23 12:24:36;;;;;;;8.55;5.70;;;;;;;;;;4923694;29;20052;-84
2021/01/23 12:27:04;;;;;;;9.43;6.05;;;;;;;;;;4941498;29;20051;-85
2021/01/23 12:29:30;;;;;;;10.75;6.50;;;;;;;;;;4933638;29;20048;-85
2021/01/23 12:31:56;;;;;;;7.72;5.68;;;;;;;;;;4921841;29;20075;-84
2021/01/23 12:34:23;;;;;;;5.68;4.45;;;;;;;;;;4921979;29;20052;-85
2021/01/23 12:36:49;;;;;;;5.65;4.50;;;;;;;;;;4921300;29;20048;-85
2021/01/23 12:39:15;;;;;;;7.30;5.15;;;;;;;;;;4921464;29;20108;-85
2021/01/23 12:41:41;;;;;;;8.10;5.32;;;;;;;;;;4921575;29;20481;-84
2021/01/23 12:44:07;;;;;;;6.53;4.45;;;;;;;;;;4920005;29;20070;-85
2021/01/23 12:46:33;;;;;;;7.18;5.43;;;;;;;;;;4925650;29;20079;-84
2021/01/23 12:49:00;;;;;;;6.00;4.40;;;;;;;;;;4923906;29;20056;-84
2021/01/23 12:51:26;;;;;;;7.30;4.75;;;;;;;;;;4924032;29;20048;-84
2021/01/23 12:53:52;;;;;;;6.47;5.05;;;;;;;;;;4931574;29;20502;-84
2021/01/23 12:56:18;;;;;;;6.72;4.82;;;;;;;;;;4921311;29;20180;-85
2021/01/23 12:58:45;;;;;;;9.40;5.97;;;;;;;;;;4927381;29;20130;-84
2021/01/23 13:01:12;;;;;;;8.52;5.45;;;;;;;;;;4935366;29;20052;-84
2021/01/23 13:03:38;;;;;;;6.72;4.57;;;;;;;;;;4927189;29;20051;-84
2021/01/23 13:06:05;;;;;;;7.65;5.40;;;;;;;;;;4931611;29;20416;-84
2021/01/23 13:08:31;;;;;;;6.55;5.03;;;;;;;;;;4926959;29;20401;-84
2021/01/23 13:10:57;;;;;;;7.53;5.68;;;;;;;;;;4935029;29;20341;-85
2021/01/23 13:13:24;;;;;;;7.50;4.68;;;;;;;;;;4928647;29;20052;-84
2021/01/23 13:15:50;;;;;;;7.63;4.60;;;;;;;;;;4922473;29;20056;-84
2021/01/23 13:18:17;;;;;;;7.22;4.88;;;;;;;;;;4928716;29;20058;-85
2021/01/23 13:20:43;;;;;;;7.38;4.68;;;;;;;;;;4923587;29;20513;-85
2021/01/23 13:23:09;;;;;;;8.57;5.03;;;;;;;;;;4930354;29;20477;-85
2021/01/23 13:25:35;;;;;;;7.93;4.53;;;;;;;;;;4927832;29;20052;-84
2021/01/23 13:28:01;;;;;;;8.93;5.20;;;;;;;;;;4934283;29;20056;-84
2021/01/23 13:30:27;;;;;;;7.13;5.40;;;;;;;;;;4934216;29;20814;-84
2021/01/23 13:32:53;;;;;;;6.82;4.45;;;;;;;;;;4922556;29;20048;-83
2021/01/23 13:35:20;;;;;;;7.88;5.45;;;;;;;;;;4920369;29;20523;-83
2021/01/23 13:37:46;;;;;;;18.92;12.38;;;;;;;;;;4929780;29;20508;-84
2021/01/23 13:40:13;;;;;;;15.57;8.88;;;;;;;;;;4926926;29;20067;-84
2021/01/23 13:42:39;;;;;;;9.68;6.50;;;;;;;;;;4929581;29;20044;-84
2021/01/23 13:45:06;;;;;;;14.00;10.55;;;;;;;;;;4926935;29;20048;-84
2021/01/23 13:47:33;;;;;;;23.73;16.05;;;;;;;;;;4921003;29;20084;-84
2021/01/23 13:49:59;;;;;;;12.48;9.02;;;;;;;;;;4922751;29;20058;-84
2021/01/23 13:52:25;;;;;;;9.65;6.05;;;;;;;;;;4927328;29;20092;-84
2021/01/23 13:54:51;;;;;;;7.68;5.45;;;;;;;;;;4920663;29;20481;-84
2021/01/23 13:57:17;;;;;;;9.30;5.88;;;;;;;;;;4920845;29;20083;-84
2021/01/23 13:59:44;;;;;;;10.38;7.82;;;;;;;;;;4924688;29;20051;-84
2021/01/23 14:02:10;;;;;;;7.45;5.57;;;;;;;;;;4929655;29;20159;-84
2021/01/23 14:04:36;;;;;;;9.32;5.70;;;;;;;;;;4918155;29;20457;-84
2021/01/23 14:07:02;;;;;;;8.48;6.05;;;;;;;;;;4924108;29;20047;-84
2021/01/23 14:09:29;;;;;;;11.07;7.20;;;;;;;;;;4937956;29;20055;-84
2021/01/23 14:11:57;;;;;;;9.75;5.97;;;;;;;;;;4937825;29;20409;-84
2021/01/23 14:14:23;;;;;;;7.60;5.65;;;;;;;;;;4928607;29;20051;-85
2021/01/23 14:16:50;;;;;;;8.32;5.53;;;;;;;;;;4939045;29;20094;-84
2021/01/23 14:19:16;;;;;;;7.15;5.18;;;;;;;;;;4937369;29;20527;-84
2021/01/23 14:21:42;;;;;;;7.50;5.18;;;;;;;;;;4929893;29;20056;-84
2021/01/23 14:24:08;;;;;;;11.43;6.60;;;;;;;;;;4918810;29;20052;-84
2021/01/23 14:26:35;;;;;;;8.82;5.57;;;;;;;;;;4919639;29;20052;-84
2021/01/23 14:29:01;;;;;;;8.40;5.40;;;;;;;;;;4919899;29;20059;-84
2021/01/23 14:31:27;;;;;;;5.72;4.00;;;;;;;;;;4920854;29;20060;-85
2021/01/23 14:33:53;;;;;;;6.97;4.65;;;;;;;;;;4919468;29;20063;-84
2021/01/23 14:36:19;;;;;;;8.95;5.88;;;;;;;;;;4925016;29;20044;-84
2021/01/23 14:38:45;;;;;;;7.85;5.20;;;;;;;;;;4919779;29;20382;-83
2021/01/23 14:41:11;;;;;;;8.90;5.38;;;;;;;;;;4919357;29;20059;-84